Time;durP1;ratioP1;P1;durP2;ratioP2;P2;SDS_P1;SDS_P2;PMS_P1;PMS_P2;Temp;Humidity;BMP_temperature;BMP_pressure;BME280_temperature;BME280_humidity;BME280_pressure;Samples;Min_cycle;Max_cycle;Signal;HPM_P1;HPM_P2
2022/10/25 00:01:53;;;;;;;;;;;;;;;;;;5130693;28;2073;-41
2022/10/25 00:04:20;;;;;;;;;;;;;;;;;;5131289;28;1859;-40
2022/10/25 00:06:52;;;;;;;;;;;;;;;;;;5131836;27;1779;-41
2022/10/25 00:09:19;;;;;;;;;;;;;;;;;;5131737;27;2027;-43
2022/10/25 00:11:46;;;;;;;;;;;;;;;;;;5131646;28;1942;-45
2022/10/25 00:14:17;;;;;;;;;;;;;;;;;;5131891;27;1684;-41
2022/10/25 00:16:44;;;;;;;;;;;;;;;;;;5131377;28;1727;-44
2022/10/25 00:19:13;;;;;;;;;;;;;;;;;;5131508;28;2112;-41
2022/10/25 00:21:40;;;;;;;;;;;;;;;;;;5131606;27;2000;-41
2022/10/25 00:24:09;;;;;;;;;;;;;;;;;;5131539;27;1679;-45
2022/10/25 00:26:36;;;;;;;;;;;;;;;;;;5131500;28;1596;-41
2022/10/25 00:29:03;;;;;;;;;;;;;;;;;;5130994;27;2036;-42
2022/10/25 00:31:30;;;;;;;;;;;;;;;;;;5131687;27;1976;-41
2022/10/25 00:33:57;;;;;;;;;;;;;;;;;;5119417;27;1644;-40
2022/10/25 00:36:25;;;;;;;;;;;;;;;;;;5111300;28;1858;-42
2022/10/25 00:38:54;;;;;;;;;;;;;;;;;;5114679;28;1775;-39
2022/10/25 00:41:22;;;;;;;;;;;;;;;;;;5114546;28;1829;-43
2022/10/25 00:43:51;;;;;;;;;;;;;;;;;;5114584;28;2088;-43
2022/10/25 00:46:24;;;;;;;;;;;;;;;;;;5114460;28;1964;-42
2022/10/25 00:48:51;;;;;;;;;;;;;;;;;;5114579;28;1766;-42
2022/10/25 00:51:20;;;;;;;;;;;;;;;;;;5114368;28;1975;-42
2022/10/25 00:53:48;;;;;;;;;;;;;;;;;;5114562;28;2067;-40
2022/10/25 00:56:17;;;;;;;;;;;;;;;;;;5114408;28;1959;-40
2022/10/25 00:58:46;;;;;;;;;;;;;;;;;;5114276;28;1783;-44
2022/10/25 01:01:14;;;;;;;;;;;;;;;;;;5114200;28;1961;-42
2022/10/25 01:03:46;;;;;;;;;;;;;;;;;;5112429;28;2064;-44
2022/10/25 01:06:19;;;;;;;;;;;;;;;;;;5114090;27;1682;-44
2022/10/25 01:08:47;;;;;;;;;;;;;;;;;;5113980;28;1986;-41
2022/10/25 01:11:14;;;;;;;;;;;;;;;;;;5112504;28;2196;-45
2022/10/25 01:13:42;;;;;;;;;;;;;;;;;;5114085;28;1640;-44
2022/10/25 01:16:27;;;;;;;;;;;;;;;;;;5113934;28;1751;-43
2022/10/25 01:19:13;;;;;;;;;;;;;;;;;;5114005;28;2151;-42
2022/10/25 01:21:46;;;;;;;;;;;;;;;;;;5113850;28;2089;-41
2022/10/25 01:24:31;;;;;;;;;;;;;;;;;;5113778;28;1577;-41
2022/10/25 01:27:17;;;;;;;;;;;;;;;;;;5113944;27;1698;-44
2022/10/25 01:30:02;;;;;;;;;;;;;;;;;;5113852;28;2270;-40
2022/10/25 01:32:38;;;;;;;;;;;;;;;;;;5113378;28;2097;-44
2022/10/25 01:35:11;;;;;;;;;;;;;;;;;;5113411;28;2272;-41
2022/10/25 01:37:54;;;;;;;;;;;;;;;;;;5113417;28;1745;-42
2022/10/25 01:40:32;;;;;;;;;;;;;;;;;;5113110;28;1223;-43
2022/10/25 01:43:02;;;;;;;;;;;;;;;;;;5113555;28;1636;-43
2022/10/25 01:45:33;;;;;;;;;;;;;;;;;;5113285;28;1334;-44
2022/10/25 01:48:00;;;;;;;;;;;;;;;;;;5111671;28;1945;-45
2022/10/25 01:50:28;;;;;;;;;;;;;;;;;;5112888;28;1453;-44
2022/10/25 01:52:55;;;;;;;;;;;;;;;;;;5113072;28;1965;-42
2022/10/25 01:55:45;;;;;;;;;;;;;;;;;;5113290;28;2121;-44
2022/10/25 01:58:15;;;;;;;;;;;;;;;;;;5113241;28;1952;-44
2022/10/25 02:00:55;;;;;;;;;;;;;;;;;;5113139;28;1659;-44
2022/10/25 02:03:39;;;;;;;;;;;;;;;;;;5112978;28;1771;-41
2022/10/25 02:06:14;;;;;;;;;;;;;;;;;;5113269;28;1885;-41
2022/10/25 02:08:45;;;;;;;;;;;;;;;;;;5112738;28;1876;-42
2022/10/25 02:11:13;;;;;;;;;;;;;;;;;;5112672;28;2010;-44
2022/10/25 02:13:47;;;;;;;;;;;;;;;;;;5118906;27;1880;-43
2022/10/25 02:16:21;;;;;;;;;;;;;;;;;;5133490;27;1982;-43
2022/10/25 02:18:51;;;;;;;;;;;;;;;;;;5133080;27;1563;-43
2022/10/25 02:21:19;;;;;;;;;;;;;;;;;;5133260;27;2051;-41
2022/10/25 02:23:48;;;;;;;;;;;;;;;;;;5133026;27;2056;-42
2022/10/25 02:26:15;;;;;;;;;;;;;;;;;;5133164;27;1650;-40
2022/10/25 02:28:43;;;;;;;;;;;;;;;;;;5132985;27;1902;-41
2022/10/25 02:31:14;;;;;;;;;;;;;;;;;;5133026;27;1892;-45
2022/10/25 02:33:44;;;;;;;;;;;;;;;;;;5133009;27;1409;-43
2022/10/25 02:36:17;;;;;;;;;;;;;;;;;;5132835;27;1858;-44
2022/10/25 02:38:45;;;;;;;;;;;;;;;;;;5132698;27;1261;-44
2022/10/25 02:41:12;;;;;;;;;;;;;;;;;;5132977;27;2156;-41
2022/10/25 02:43:40;;;;;;;;;;;;;;;;;;5132602;27;1655;-40
2022/10/25 02:46:08;;;;;;;;;;;;;;;;;;5132799;27;2104;-42
2022/10/25 02:48:36;;;;;;;;;;;;;;;;;;5132672;27;2243;-44
2022/10/25 02:51:06;;;;;;;;;;;;;;;;;;5132806;27;1986;-41
2022/10/25 02:53:34;;;;;;;;;;;;;;;;;;5132386;27;1890;-40
2022/10/25 02:56:05;;;;;;;;;;;;;;;;;;5132763;27;1572;-43
2022/10/25 02:58:34;;;;;;;;;;;;;;;;;;5132536;27;1977;-40
2022/10/25 03:01:01;;;;;;;;;;;;;;;;;;5131788;27;1825;-41
2022/10/25 03:03:28;;;;;;;;;;;;;;;;;;5132307;27;1661;-43
2022/10/25 03:05:56;;;;;;;;;;;;;;;;;;5132484;27;1972;-41
2022/10/25 03:08:24;;;;;;;;;;;;;;;;;;5132564;27;2159;-43
2022/10/25 03:10:51;;;;;;;;;;;;;;;;;;5132332;27;1799;-42
2022/10/25 03:13:18;;;;;;;;;;;;;;;;;;5132427;27;1966;-40
2022/10/25 03:15:46;;;;;;;;;;;;;;;;;;5132194;27;1703;-41
2022/10/25 03:18:13;;;;;;;;;;;;;;;;;;5131854;27;2246;-45
2022/10/25 03:20:40;;;;;;;;;;;;;;;;;;5132282;27;2000;-41
2022/10/25 03:23:08;;;;;;;;;;;;;;;;;;5119478;27;2104;-44
2022/10/25 03:25:35;;;;;;;;;;;;;;;;;;5111514;28;2203;-44
2022/10/25 03:28:03;;;;;;;;;;;;;;;;;;5111647;28;1607;-42
2022/10/25 03:30:30;;;;;;;;;;;;;;;;;;5111486;28;1906;-44
2022/10/25 03:32:57;;;;;;;;;;;;;;;;;;5114996;28;1979;-42
2022/10/25 03:35:25;;;;;;;;;;;;;;;;;;5132137;27;2021;-40
2022/10/25 03:37:52;;;;;;;;;;;;;;;;;;5132061;27;1935;-40
2022/10/25 03:40:19;;;;;;;;;;;;;;;;;;5130803;28;1523;-43
2022/10/25 03:42:47;;;;;;;;;;;;;;;;;;5131706;28;2006;-42
2022/10/25 03:45:14;;;;;;;;;;;;;;;;;;5131847;27;1873;-41
2022/10/25 03:47:42;;;;;;;;;;;;;;;;;;5130762;28;2059;-42
2022/10/25 03:50:09;;;;;;;;;;;;;;;;;;5132119;27;2030;-43
2022/10/25 03:52:37;;;;;;;;;;;;;;;;;;5131651;28;1902;-43
2022/10/25 03:55:04;;;;;;;;;;;;;;;;;;5130079;27;2226;-41
2022/10/25 03:57:32;;;;;;;;;;;;;;;;;;5111235;28;1594;-41
2022/10/25 03:59:59;;;;;;;;;;;;;;;;;;5111441;28;2105;-42
2022/10/25 04:02:37;;;;;;;;;;;;;;;;;;5111398;28;1967;-41
2022/10/25 04:05:04;;;;;;;;;;;;;;;;;;5117700;28;2536;-43
2022/10/25 04:07:32;;;;;;;;;;;;;;;;;;5132051;27;1849;-43
2022/10/25 04:09:59;;;;;;;;;;;;;;;;;;5131633;27;1703;-42
2022/10/25 04:12:26;;;;;;;;;;;;;;;;;;5133601;27;1911;-43
2022/10/25 04:14:54;;;;;;;;;;;;;;;;;;5136034;27;1947;-44
2022/10/25 04:17:21;;;;;;;;;;;;;;;;;;5135753;27;2002;-41
2022/10/25 04:19:48;;;;;;;;;;;;;;;;;;5135582;27;2138;-44
2022/10/25 04:22:15;;;;;;;;;;;;;;;;;;5135779;27;1932;-39
2022/10/25 04:24:42;;;;;;;;;;;;;;;;;;5135229;27;2032;-41
2022/10/25 04:27:10;;;;;;;;;;;;;;;;;;5118932;27;2057;-41
2022/10/25 04:29:37;;;;;;;;;;;;;;;;;;5114765;28;2046;-38
2022/10/25 04:32:05;;;;;;;;;;;;;;;;;;5114688;28;1919;-42
2022/10/25 04:34:32;;;;;;;;;;;;;;;;;;5114701;28;2084;-39
2022/10/25 04:36:59;;;;;;;;;;;;;;;;;;5114807;28;2516;-45
2022/10/25 04:39:27;;;;;;;;;;;;;;;;;;5113485;28;2093;-43
2022/10/25 04:41:54;;;;;;;;;;;;;;;;;;5114760;28;1657;-40
2022/10/25 04:44:21;;;;;;;;;;;;;;;;;;5114644;28;1842;-40
2022/10/25 04:46:50;;;;;;;;;;;;;;;;;;5114458;28;1794;-42
2022/10/25 04:49:17;;;;;;;;;;;;;;;;;;5114545;28;2249;-40
2022/10/25 04:51:44;;;;;;;;;;;;;;;;;;5114582;28;2009;-40
2022/10/25 04:54:12;;;;;;;;;;;;;;;;;;5114410;28;1719;-40
2022/10/25 04:56:39;;;;;;;;;;;;;;;;;;5114126;28;1572;-41
2022/10/25 04:59:07;;;;;;;;;;;;;;;;;;5114218;28;2151;-43
2022/10/25 05:01:35;;;;;;;;;;;;;;;;;;5114208;28;2238;-42
2022/10/25 05:04:02;;;;;;;;;;;;;;;;;;5114087;28;2105;-46
2022/10/25 05:06:29;;;;;;;;;;;;;;;;;;5113929;28;2233;-43
2022/10/25 05:08:57;;;;;;;;;;;;;;;;;;5114530;28;2006;-40
2022/10/25 05:11:24;;;;;;;;;;;;;;;;;;5114009;28;1730;-40
2022/10/25 05:13:51;;;;;;;;;;;;;;;;;;5114061;28;1913;-39
2022/10/25 05:16:22;;;;;;;;;;;;;;;;;;5114327;28;1926;-42
2022/10/25 05:18:50;;;;;;;;;;;;;;;;;;5113803;28;2491;-40
2022/10/25 05:21:17;;;;;;;;;;;;;;;;;;5114206;28;2212;-41
2022/10/25 05:23:45;;;;;;;;;;;;;;;;;;5112941;28;1898;-46
2022/10/25 05:26:14;;;;;;;;;;;;;;;;;;5113785;28;1880;-40
2022/10/25 05:28:42;;;;;;;;;;;;;;;;;;5113655;28;1981;-44
2022/10/25 05:31:19;;;;;;;;;;;;;;;;;;5113568;28;1601;-41
2022/10/25 05:33:51;;;;;;;;;;;;;;;;;;5124244;27;1992;-42
2022/10/25 05:36:19;;;;;;;;;;;;;;;;;;5134175;27;1700;-43
2022/10/25 05:38:46;;;;;;;;;;;;;;;;;;5134618;27;1755;-44
2022/10/25 05:41:14;;;;;;;;;;;;;;;;;;5134051;27;1817;-44
2022/10/25 05:43:42;;;;;;;;;;;;;;;;;;5133864;27;2204;-42
2022/10/25 05:46:17;;;;;;;;;;;;;;;;;;5134004;27;1670;-43
2022/10/25 05:48:44;;;;;;;;;;;;;;;;;;5133948;27;1725;-48
2022/10/25 05:51:15;;;;;;;;;;;;;;;;;;5134065;27;2079;-49
2022/10/25 05:54:08;;;;;;;;;;;;;;;;;;5133621;27;1913;-43
2022/10/25 05:56:35;;;;;;;;;;;;;;;;;;5125185;27;1707;-42
2022/10/25 05:59:07;;;;;;;;;;;;;;;;;;5113159;28;2045;-45
2022/10/25 06:01:35;;;;;;;;;;;;;;;;;;5113238;28;2177;-43
2022/10/25 06:04:05;;;;;;;;;;;;;;;;;;5112876;28;2154;-43
2022/10/25 06:06:32;;;;;;;;;;;;;;;;;;5113012;28;2233;-40
2022/10/25 06:09:00;;;;;;;;;;;;;;;;;;5112677;28;1979;-44
2022/10/25 06:11:27;;;;;;;;;;;;;;;;;;5112934;28;1954;-41
2022/10/25 06:13:55;;;;;;;;;;;;;;;;;;5112805;28;1924;-43
2022/10/25 06:16:22;;;;;;;;;;;;;;;;;;5111647;28;2597;-42
2022/10/25 06:18:50;;;;;;;;;;;;;;;;;;5113103;28;1888;-45
2022/10/25 06:21:18;;;;;;;;;;;;;;;;;;5112606;28;1886;-45
2022/10/25 06:23:46;;;;;;;;;;;;;;;;;;5112738;28;2039;-42
2022/10/25 06:26:15;;;;;;;;;;;;;;;;;;5112793;28;1667;-41
2022/10/25 06:28:42;;;;;;;;;;;;;;;;;;5112695;28;1514;-46
2022/10/25 06:31:13;;;;;;;;;;;;;;;;;;5112695;28;1701;-46
2022/10/25 06:33:40;;;;;;;;;;;;;;;;;;5111095;28;1973;-41
2022/10/25 06:36:15;;;;;;;;;;;;;;;;;;5112285;28;2043;-43
2022/10/25 06:38:42;;;;;;;;;;;;;;;;;;5112418;28;1648;-41
2022/10/25 06:41:14;;;;;;;;;;;;;;;;;;5112474;28;1697;-40
2022/10/25 06:43:41;;;;;;;;;;;;;;;;;;5112140;28;1844;-43
2022/10/25 06:46:10;;;;;;;;;;;;;;;;;;5112073;28;1982;-42
2022/10/25 06:48:37;;;;;;;;;;;;;;;;;;5112175;28;2179;-42
2022/10/25 06:51:07;;;;;;;;;;;;;;;;;;5112312;28;1665;-49
2022/10/25 06:53:35;;;;;;;;;;;;;;;;;;5112309;28;1909;-43
2022/10/25 06:56:03;;;;;;;;;;;;;;;;;;5112226;28;1342;-44
2022/10/25 06:58:32;;;;;;;;;;;;;;;;;;5112172;28;2135;-45
2022/10/25 07:01:03;;;;;;;;;;;;;;;;;;5111903;28;1997;-44
2022/10/25 07:03:34;;;;;;;;;;;;;;;;;;5111674;28;2030;-42
2022/10/25 07:06:04;;;;;;;;;;;;;;;;;;5110677;28;2188;-44
2022/10/25 07:08:33;;;;;;;;;;;;;;;;;;5111947;28;1474;-42
2022/10/25 07:11:00;;;;;;;;;;;;;;;;;;5111955;28;2018;-48
2022/10/25 07:13:29;;;;;;;;;;;;;;;;;;5111621;28;1922;-45
2022/10/25 07:16:06;;;;;;;;;;;;;;;;;;5111960;28;1984;-45
2022/10/25 07:18:33;;;;;;;;;;;;;;;;;;5111831;28;1645;-44
2022/10/25 07:21:01;;;;;;;;;;;;;;;;;;5111666;28;1848;-42
2022/10/25 07:23:28;;;;;;;;;;;;;;;;;;5111780;28;2182;-44
2022/10/25 07:25:56;;;;;;;;;;;;;;;;;;5111917;28;1581;-44
2022/10/25 07:28:23;;;;;;;;;;;;;;;;;;5111891;28;1911;-44
2022/10/25 07:30:50;;;;;;;;;;;;;;;;;;5126460;27;1999;-44
2022/10/25 07:33:18;;;;;;;;;;;;;;;;;;5111467;28;2008;-49
2022/10/25 07:35:46;;;;;;;;;;;;;;;;;;5111443;28;2102;-44
2022/10/25 07:38:24;;;;;;;;;;;;;;;;;;5111635;28;2302;-51
2022/10/25 07:40:57;;;;;;;;;;;;;;;;;;5111860;28;1850;-51
2022/10/25 07:43:24;;;;;;;;;;;;;;;;;;5111798;28;1504;-51
2022/10/25 07:45:52;;;;;;;;;;;;;;;;;;5111304;28;1629;-45
2022/10/25 07:48:19;;;;;;;;;;;;;;;;;;5115110;28;1447;-53
2022/10/25 07:50:46;;;;;;;;;;;;;;;;;;5115495;28;1853;-45
2022/10/25 07:53:13;;;;;;;;;;;;;;;;;;5114867;28;2181;-50
2022/10/25 07:55:40;;;;;;;;;;;;;;;;;;5115583;28;1904;-53
2022/10/25 07:58:09;;;;;;;;;;;;;;;;;;5115546;28;1836;-48
2022/10/25 08:00:37;;;;;;;;;;;;;;;;;;5115236;28;2273;-43
2022/10/25 08:03:04;;;;;;;;;;;;;;;;;;5122798;27;1825;-48
2022/10/25 08:05:31;;;;;;;;;;;;;;;;;;5135680;27;1889;-48
2022/10/25 08:07:58;;;;;;;;;;;;;;;;;;5136150;27;1928;-48
2022/10/25 08:10:25;;;;;;;;;;;;;;;;;;5136042;27;1815;-49
2022/10/25 08:12:53;;;;;;;;;;;;;;;;;;5134793;27;2124;-46
2022/10/25 08:15:21;;;;;;;;;;;;;;;;;;5135668;27;2161;-48
2022/10/25 08:17:55;;;;;;;;;;;;;;;;;;5118702;27;1883;-50
2022/10/25 08:20:22;;;;;;;;;;;;;;;;;;5114305;27;1890;-49
2022/10/25 08:23:08;;;;;;;;;;;;;;;;;;5114591;27;1906;-45
2022/10/25 08:25:36;;;;;;;;;;;;;;;;;;5112940;27;1634;-54
2022/10/25 08:28:03;;;;;;;;;;;;;;;;;;5114809;28;1827;-49
2022/10/25 08:30:30;;;;;;;;;;;;;;;;;;5114096;28;1570;-46
2022/10/25 08:32:57;;;;;;;;;;;;;;;;;;5113937;28;2069;-51
2022/10/25 08:35:27;;;;;;;;;;;;;;;;;;5122326;27;1845;-50
2022/10/25 08:37:54;;;;;;;;;;;;;;;;;;5121443;27;2253;-52
2022/10/25 08:40:28;;;;;;;;;;;;;;;;;;5114643;28;2066;-40
2022/10/25 08:42:58;;;;;;;;;;;;;;;;;;5114377;28;1874;-47
2022/10/25 08:45:37;;;;;;;;;;;;;;;;;;5114372;28;1909;-44
2022/10/25 08:48:10;;;;;;;;;;;;;;;;;;5114220;28;1441;-45
2022/10/25 08:50:39;;;;;;;;;;;;;;;;;;5114309;28;2209;-40
2022/10/25 08:53:13;;;;;;;;;;;;;;;;;;5114176;28;1968;-48
2022/10/25 08:55:43;;;;;;;;;;;;;;;;;;5114012;28;1815;-52
2022/10/25 08:58:35;;;;;;;;;;;;;;;;;;5114065;28;2179;-45
2022/10/25 09:01:22;;;;;;;;;;;;;;;;;;5114075;28;1710;-43
2022/10/25 09:03:50;;;;;;;;;;;;;;;;;;5113709;28;2208;-47
2022/10/25 09:06:36;;;;;;;;;;;;;;;;;;5114050;28;1718;-49
2022/10/25 09:09:39;;;;;;;;;;;;;;;;;;5113982;28;1545;-47
2022/10/25 09:12:19;;;;;;;;;;;;;;;;;;5070333;28;2007;-47
2022/10/25 09:14:50;;;;;;;;;;;;;;;;;;5109005;28;2042;-54
2022/10/25 09:17:28;;;;;;;;;;;;;;;;;;5113580;28;1978;-48
2022/10/25 09:20:06;;;;;;;;;;;;;;;;;;5113499;28;1925;-51
2022/10/25 09:22:42;;;;;;;;;;;;;;;;;;5111869;28;1983;-50
2022/10/25 09:25:16;;;;;;;;;;;;;;;;;;5111497;28;1514;-44
2022/10/25 09:27:52;;;;;;;;;;;;;;;;;;5111990;28;2024;-49
2022/10/25 09:30:19;;;;;;;;;;;;;;;;;;5111639;28;1786;-51
2022/10/25 09:32:52;;;;;;;;;;;;;;;;;;5111259;28;1912;-48
2022/10/25 09:35:23;;;;;;;;;;;;;;;;;;5111751;27;1806;-49
2022/10/25 09:37:52;;;;;;;;;;;;;;;;;;5124393;27;2013;-47
2022/10/25 09:40:28;;;;;;;;;;;;;;;;;;5132369;27;1641;-45
2022/10/25 09:42:58;;;;;;;;;;;;;;;;;;5132235;27;1741;-46
2022/10/25 09:45:46;;;;;;;;;;;;;;;;;;5133190;27;2142;-51
2022/10/25 09:48:32;;;;;;;;;;;;;;;;;;5133159;27;1871;-54
2022/10/25 09:51:09;;;;;;;;;;;;;;;;;;5133444;27;1951;-47
2022/10/25 09:53:39;;;;;;;;;;;;;;;;;;5133277;27;1945;-40
2022/10/25 09:56:06;;;;;;;;;;;;;;;;;;5133486;27;1906;-40
2022/10/25 09:58:46;;;;;;;;;;;;;;;;;;5133570;27;1438;-48
2022/10/25 10:01:19;;;;;;;;;;;;;;;;;;5133680;27;1893;-46
2022/10/25 10:03:46;;;;;;;;;;;;;;;;;;5133122;27;2146;-48
2022/10/25 10:06:37;;;;;;;;;;;;;;;;;;5133240;27;1815;-50
2022/10/25 10:09:10;;;;;;;;;;;;;;;;;;5133178;27;2073;-50
2022/10/25 10:11:38;;;;;;;;;;;;;;;;;;5128292;27;1846;-49
2022/10/25 10:14:09;;;;;;;;;;;;;;;;;;5112867;28;2017;-49
2022/10/25 10:16:53;;;;;;;;;;;;;;;;;;5112841;28;2036;-45
2022/10/25 10:19:21;;;;;;;;;;;;;;;;;;5112609;28;1853;-42
2022/10/25 10:21:51;;;;;;;;;;;;;;;;;;5112518;28;1480;-51
2022/10/25 10:24:28;;;;;;;;;;;;;;;;;;5112357;28;2011;-45
2022/10/25 10:27:05;;;;;;;;;;;;;;;;;;5112260;28;1876;-47
2022/10/25 10:29:35;;;;;;;;;;;;;;;;;;5111962;28;1981;-47
2022/10/25 10:32:22;;;;;;;;;;;;;;;;;;5112143;28;1879;-46
2022/10/25 10:34:54;;;;;;;;;;;;;;;;;;5110616;28;2219;-54
2022/10/25 10:37:22;;;;;;;;;;;;;;;;;;5120792;27;2060;-49
2022/10/25 10:39:51;;;;;;;;;;;;;;;;;;5132601;27;2145;-46
2022/10/25 10:42:20;;;;;;;;;;;;;;;;;;5132555;27;1594;-46
2022/10/25 10:45:11;;;;;;;;;;;;;;;;;;5132606;27;2068;-52
2022/10/25 10:47:47;;;;;;;;;;;;;;;;;;5124868;27;2203;-47
2022/10/25 10:50:27;;;;;;;;;;;;;;;;;;5132516;27;1894;-53
2022/10/25 10:52:54;;;;;;;;;;;;;;;;;;5132554;27;2552;-50
2022/10/25 10:55:25;;;;;;;;;;;;;;;;;;5132350;27;1967;-44
2022/10/25 10:57:53;;;;;;;;;;;;;;;;;;5132475;27;1949;-48
2022/10/25 11:00:26;;;;;;;;;;;;;;;;;;5132304;27;1316;-47
2022/10/25 11:02:53;;;;;;;;;;;;;;;;;;5131107;27;1944;-51
2022/10/25 11:05:27;;;;;;;;;;;;;;;;;;5131785;27;2181;-54
2022/10/25 11:07:56;;;;;;;;;;;;;;;;;;5132136;27;1842;-46
2022/10/25 11:10:27;;;;;;;;;;;;;;;;;;5131701;27;1753;-48
2022/10/25 11:13:04;;;;;;;;;;;;;;;;;;5116448;27;1938;-51
2022/10/25 11:15:35;;;;;;;;;;;;;;;;;;5111301;28;1968;-50
2022/10/25 11:18:04;;;;;;;;;;;;;;;;;;5111630;28;1801;-53
2022/10/25 11:21:03;;;;;;;;;;;;;;;;;;5111208;28;2176;-49
2022/10/25 11:23:35;;;;;;;;;;;;;;;;;;5073589;27;1961;-44
2022/10/25 11:26:16;;;;;;;;;;;;;;;;;;5111602;28;2247;-48
2022/10/25 11:28:59;;;;;;;;;;;;;;;;;;5111372;28;1868;-53
2022/10/25 11:31:45;;;;;;;;;;;;;;;;;;5111472;28;1863;-47
2022/10/25 11:34:12;;;;;;;;;;;;;;;;;;5110964;28;1914;-44
2022/10/25 11:36:40;;;;;;;;;;;;;;;;;;5111574;28;2328;-51
2022/10/25 11:39:25;;;;;;;;;;;;;;;;;;5111215;28;1740;-48
2022/10/25 11:41:56;;;;;;;;;;;;;;;;;;5111379;28;1897;-40
2022/10/25 11:44:42;;;;;;;;;;;;;;;;;;5111084;28;1962;-48
2022/10/25 11:47:12;;;;;;;;;;;;;;;;;;5111102;28;1590;-50
2022/10/25 11:49:46;;;;;;;;;;;;;;;;;;5111028;28;1976;-50
2022/10/25 11:52:16;;;;;;;;;;;;;;;;;;5110336;28;2184;-42
2022/10/25 11:54:51;;;;;;;;;;;;;;;;;;5111076;28;1895;-40
2022/10/25 11:57:22;;;;;;;;;;;;;;;;;;5110978;28;1819;-48
2022/10/25 12:00:01;;;;;;;;;;;;;;;;;;5111192;28;1842;-48
2022/10/25 12:02:38;;;;;;;;;;;;;;;;;;5110993;28;2046;-45
2022/10/25 12:05:08;;;;;;;;;;;;;;;;;;5110750;28;1494;-42
2022/10/25 12:07:41;;;;;;;;;;;;;;;;;;5110725;28;1788;-47
2022/10/25 12:10:17;;;;;;;;;;;;;;;;;;5110831;28;1610;-51
2022/10/25 12:13:07;;;;;;;;;;;;;;;;;;5110808;28;1993;-54
2022/10/25 12:15:37;;;;;;;;;;;;;;;;;;5110730;28;1963;-48
2022/10/25 12:18:05;;;;;;;;;;;;;;;;;;5109593;28;2203;-45
2022/10/25 12:20:33;;;;;;;;;;;;;;;;;;5110897;28;2150;-47
2022/10/25 12:23:11;;;;;;;;;;;;;;;;;;5110874;28;1693;-51
2022/10/25 12:25:54;;;;;;;;;;;;;;;;;;5110756;28;1848;-50
2022/10/25 12:28:24;;;;;;;;;;;;;;;;;;5110802;28;2010;-46
2022/10/25 12:31:09;;;;;;;;;;;;;;;;;;5110749;28;1599;-47
2022/10/25 12:33:42;;;;;;;;;;;;;;;;;;5112760;28;1993;-45
2022/10/25 12:36:16;;;;;;;;;;;;;;;;;;5114684;28;1674;-46
2022/10/25 12:38:44;;;;;;;;;;;;;;;;;;5114795;28;1874;-50
2022/10/25 12:41:13;;;;;;;;;;;;;;;;;;5114670;28;1217;-45
2022/10/25 12:43:46;;;;;;;;;;;;;;;;;;5114564;27;1896;-46
2022/10/25 12:46:23;;;;;;;;;;;;;;;;;;5114909;28;1752;-45
2022/10/25 12:49:08;;;;;;;;;;;;;;;;;;5114038;28;2125;-43
2022/10/25 12:51:54;;;;;;;;;;;;;;;;;;5114244;27;2038;-44
2022/10/25 12:54:27;;;;;;;;;;;;;;;;;;5113364;28;1901;-50
2022/10/25 12:57:02;;;;;;;;;;;;;;;;;;5114233;28;2076;-51
2022/10/25 12:59:29;;;;;;;;;;;;;;;;;;5114237;28;1777;-47
2022/10/25 13:02:06;;;;;;;;;;;;;;;;;;5112925;28;2037;-46
2022/10/25 13:04:45;;;;;;;;;;;;;;;;;;5113942;28;1460;-47
2022/10/25 13:07:13;;;;;;;;;;;;;;;;;;5114042;28;1579;-44
2022/10/25 13:09:40;;;;;;;;;;;;;;;;;;5112839;28;1980;-49
2022/10/25 13:12:14;;;;;;;;;;;;;;;;;;5113825;28;2081;-48
2022/10/25 13:14:51;;;;;;;;;;;;;;;;;;5113709;28;2144;-49
2022/10/25 13:17:18;;;;;;;;;;;;;;;;;;5113896;28;1406;-47
2022/10/25 13:19:45;;;;;;;;;;;;;;;;;;5113816;28;1958;-49
2022/10/25 13:22:36;;;;;;;;;;;;;;;;;;5113740;28;1710;-46
2022/10/25 13:25:07;;;;;;;;;;;;;;;;;;5113913;28;1573;-49
2022/10/25 13:27:35;;;;;;;;;;;;;;;;;;5113679;27;2172;-50
2022/10/25 13:30:05;;;;;;;;;;;;;;;;;;5113502;28;2333;-48
2022/10/25 13:32:34;;;;;;;;;;;;;;;;;;5113338;28;1446;-43
2022/10/25 13:35:18;;;;;;;;;;;;;;;;;;5113181;28;1984;-48
2022/10/25 13:37:49;;;;;;;;;;;;;;;;;;5113523;28;1999;-50
2022/10/25 13:40:27;;;;;;;;;;;;;;;;;;5112477;28;1832;-50
2022/10/25 13:43:04;;;;;;;;;;;;;;;;;;5113227;28;1534;-47
2022/10/25 13:45:34;;;;;;;;;;;;;;;;;;5112119;28;2152;-49
2022/10/25 13:48:13;;;;;;;;;;;;;;;;;;5112962;28;1817;-49
2022/10/25 13:51:00;;;;;;;;;;;;;;;;;;5113018;28;2025;-46
2022/10/25 13:53:38;;;;;;;;;;;;;;;;;;5112551;28;2150;-50
2022/10/25 13:56:13;;;;;;;;;;;;;;;;;;5112958;28;2197;-48
2022/10/25 13:58:42;;;;;;;;;;;;;;;;;;5112988;28;1987;-50
2022/10/25 14:01:15;;;;;;;;;;;;;;;;;;5112725;28;2211;-51
2022/10/25 14:03:48;;;;;;;;;;;;;;;;;;5112582;28;2184;-42
2022/10/25 14:06:24;;;;;;;;;;;;;;;;;;5112863;28;1697;-48
2022/10/25 14:09:09;;;;;;;;;;;;;;;;;;5112981;27;1417;-49
2022/10/25 14:11:37;;;;;;;;;;;;;;;;;;5112826;28;1665;-47
2022/10/25 14:14:10;;;;;;;;;;;;;;;;;;5112646;28;2020;-43
2022/10/25 14:16:40;;;;;;;;;;;;;;;;;;5112435;28;1962;-48
2022/10/25 14:19:15;;;;;;;;;;;;;;;;;;5112638;28;2023;-40
2022/10/25 14:21:47;;;;;;;;;;;;;;;;;;5112701;27;1593;-40
2022/10/25 14:24:15;;;;;;;;;;;;;;;;;;5112558;28;1812;-45
2022/10/25 14:26:49;;;;;;;;;;;;;;;;;;5112375;28;1893;-44
2022/10/25 14:29:18;;;;;;;;;;;;;;;;;;5112219;28;1952;-48
2022/10/25 14:31:45;;;;;;;;;;;;;;;;;;5112322;28;2114;-46
2022/10/25 14:34:30;;;;;;;;;;;;;;;;;;5112054;28;2100;-42
2022/10/25 14:36:58;;;;;;;;;;;;;;;;;;5112286;28;1921;-45
2022/10/25 14:39:29;;;;;;;;;;;;;;;;;;5112360;28;1739;-48
2022/10/25 14:41:58;;;;;;;;;;;;;;;;;;5112072;28;2251;-44
2022/10/25 14:44:30;;;;;;;;;;;;;;;;;;5112230;28;2319;-47
2022/10/25 14:46:58;;;;;;;;;;;;;;;;;;5111983;28;1713;-50
2022/10/25 14:49:26;;;;;;;;;;;;;;;;;;5112135;28;1374;-41
2022/10/25 14:51:58;;;;;;;;;;;;;;;;;;5112113;28;2092;-47
2022/10/25 14:54:31;;;;;;;;;;;;;;;;;;5117529;27;1914;-44
2022/10/25 14:56:59;;;;;;;;;;;;;;;;;;5111733;28;2013;-43
2022/10/25 14:59:28;;;;;;;;;;;;;;;;;;5111851;28;2208;-46
2022/10/25 15:01:55;;;;;;;;;;;;;;;;;;5111721;28;1280;-42
2022/10/25 15:04:32;;;;;;;;;;;;;;;;;;5111463;28;1761;-42
2022/10/25 15:07:04;;;;;;;;;;;;;;;;;;5111860;28;1897;-48
2022/10/25 15:09:32;;;;;;;;;;;;;;;;;;5111515;28;2114;-50
2022/10/25 15:12:16;;;;;;;;;;;;;;;;;;5111440;28;1743;-51
2022/10/25 15:14:45;;;;;;;;;;;;;;;;;;5111152;28;2043;-50
2022/10/25 15:17:24;;;;;;;;;;;;;;;;;;5110208;28;1467;-50
2022/10/25 15:20:05;;;;;;;;;;;;;;;;;;5111348;28;1654;-46
2022/10/25 15:22:41;;;;;;;;;;;;;;;;;;5111559;28;1532;-50
2022/10/25 15:25:20;;;;;;;;;;;;;;;;;;5111313;28;1901;-44
2022/10/25 15:27:48;;;;;;;;;;;;;;;;;;5110298;28;1631;-50
2022/10/25 15:30:34;;;;;;;;;;;;;;;;;;5111471;28;1704;-44
2022/10/25 15:33:02;;;;;;;;;;;;;;;;;;5111617;28;1971;-50
2022/10/25 15:35:31;;;;;;;;;;;;;;;;;;5110970;28;1913;-46
2022/10/25 15:37:58;;;;;;;;;;;;;;;;;;5111417;28;1654;-42
2022/10/25 15:40:25;;;;;;;;;;;;;;;;;;5111452;28;2046;-49
2022/10/25 15:42:52;;;;;;;;;;;;;;;;;;5111315;28;1561;-43
2022/10/25 15:45:19;;;;;;;;;;;;;;;;;;5111432;28;1457;-48
2022/10/25 15:47:48;;;;;;;;;;;;;;;;;;5111362;28;1985;-51
2022/10/25 15:50:17;;;;;;;;;;;;;;;;;;5111047;28;1925;-46
2022/10/25 15:52:44;;;;;;;;;;;;;;;;;;5111171;28;2117;-50
2022/10/25 15:55:17;;;;;;;;;;;;;;;;;;5111210;28;1977;-44
2022/10/25 15:57:47;;;;;;;;;;;;;;;;;;5111217;28;1811;-45
2022/10/25 16:00:20;;;;;;;;;;;;;;;;;;5111132;28;1931;-48
2022/10/25 16:02:50;;;;;;;;;;;;;;;;;;5110935;28;1662;-52
2022/10/25 16:05:17;;;;;;;;;;;;;;;;;;5109588;28;2045;-53
2022/10/25 16:07:45;;;;;;;;;;;;;;;;;;5111805;28;1867;-50
2022/10/25 16:10:12;;;;;;;;;;;;;;;;;;5114997;28;1722;-49
2022/10/25 16:12:40;;;;;;;;;;;;;;;;;;5115105;28;1842;-44
2022/10/25 16:15:13;;;;;;;;;;;;;;;;;;5114985;28;2473;-47
2022/10/25 16:17:40;;;;;;;;;;;;;;;;;;5113748;28;2095;-48
2022/10/25 16:20:27;;;;;;;;;;;;;;;;;;5115089;28;1904;-44
2022/10/25 16:22:55;;;;;;;;;;;;;;;;;;5114978;28;1760;-47
2022/10/25 16:25:23;;;;;;;;;;;;;;;;;;5114976;28;1711;-47
2022/10/25 16:27:54;;;;;;;;;;;;;;;;;;5114797;28;1765;-49
2022/10/25 16:30:22;;;;;;;;;;;;;;;;;;5114831;28;1800;-49
2022/10/25 16:32:50;;;;;;;;;;;;;;;;;;5114739;28;2300;-49
2022/10/25 16:35:22;;;;;;;;;;;;;;;;;;5114607;28;2231;-49
2022/10/25 16:37:50;;;;;;;;;;;;;;;;;;5114346;28;1879;-40
2022/10/25 16:40:18;;;;;;;;;;;;;;;;;;5114313;28;2091;-48
2022/10/25 16:42:45;;;;;;;;;;;;;;;;;;5114593;28;1634;-47
2022/10/25 16:45:21;;;;;;;;;;;;;;;;;;5114189;27;1911;-49
2022/10/25 16:47:49;;;;;;;;;;;;;;;;;;5114294;28;1844;-48
2022/10/25 16:50:21;;;;;;;;;;;;;;;;;;5114433;28;1554;-46
2022/10/25 16:52:49;;;;;;;;;;;;;;;;;;5113340;28;2241;-50
2022/10/25 16:55:19;;;;;;;;;;;;;;;;;;5114436;28;1985;-47
2022/10/25 16:57:46;;;;;;;;;;;;;;;;;;5114252;28;1773;-52
2022/10/25 17:00:17;;;;;;;;;;;;;;;;;;5114409;28;1891;-40
2022/10/25 17:02:45;;;;;;;;;;;;;;;;;;5113964;28;1758;-40
2022/10/25 17:05:16;;;;;;;;;;;;;;;;;;5113873;28;1593;-40
2022/10/25 17:07:44;;;;;;;;;;;;;;;;;;5114000;28;1851;-42
2022/10/25 17:10:12;;;;;;;;;;;;;;;;;;5113944;28;2105;-44
2022/10/25 17:12:47;;;;;;;;;;;;;;;;;;5113827;28;1805;-48
2022/10/25 17:15:14;;;;;;;;;;;;;;;;;;5113657;28;2268;-40
2022/10/25 17:17:44;;;;;;;;;;;;;;;;;;5113773;28;1872;-40
2022/10/25 17:20:14;;;;;;;;;;;;;;;;;;5112169;28;2054;-49
2022/10/25 17:22:43;;;;;;;;;;;;;;;;;;5113696;28;1885;-51
2022/10/25 17:25:11;;;;;;;;;;;;;;;;;;5113768;27;1736;-44
2022/10/25 17:27:41;;;;;;;;;;;;;;;;;;5113503;28;1992;-50
2022/10/25 17:30:09;;;;;;;;;;;;;;;;;;5113549;28;1447;-43
2022/10/25 17:32:36;;;;;;;;;;;;;;;;;;5113594;28;2086;-44